sensor_id;sensor_type;location;lat;lon;timestamp;temperature;humidity
11025;DHT22;22890;51.820;8.682;2023-05-08T00:05:27;11.70;99.90
11025;DHT22;22890;51.820;8.682;2023-05-08T00:10:27;11.70;99.90
11025;DHT22;22890;51.820;8.682;2023-05-08T00:22:43;11.60;99.90
11025;DHT22;22890;51.820;8.682;2023-05-08T00:27:37;11.70;99.90
11025;DHT22;22890;51.820;8.682;2023-05-08T00:30:05;8.40;99.90
11025;DHT22;22890;51.820;8.682;2023-05-08T00:42:20;11.60;99.90
11025;DHT22;22890;51.820;8.682;2023-05-08T00:44:47;11.50;99.90
11025;DHT22;22890;51.820;8.682;2023-05-08T00:54:37;11.40;99.90
11025;DHT22;22890;51.820;8.682;2023-05-08T00:57:07;11.50;99.90
11025;DHT22;22890;51.820;8.682;2023-05-08T00:59:35;11.50;99.90
11025;DHT22;22890;51.820;8.682;2023-05-08T01:02:02;11.50;99.90
11025;DHT22;22890;51.820;8.682;2023-05-08T01:04:30;11.50;99.90
11025;DHT22;22890;51.820;8.682;2023-05-08T01:07:00;11.50;99.90
11025;DHT22;22890;51.820;8.682;2023-05-08T01:12:19;11.50;99.90
11025;DHT22;22890;51.820;8.682;2023-05-08T01:15:11;11.50;99.90
11025;DHT22;22890;51.820;8.682;2023-05-08T01:18:10;11.40;99.90
11025;DHT22;22890;51.820;8.682;2023-05-08T01:23:37;11.40;99.90
11025;DHT22;22890;51.820;8.682;2023-05-08T01:32:14;11.30;99.90
11025;DHT22;22890;51.820;8.682;2023-05-08T01:35:02;11.40;99.90
11025;DHT22;22890;51.820;8.682;2023-05-08T01:40:39;11.30;99.90
11025;DHT22;22890;51.820;8.682;2023-05-08T01:45:51;11.30;99.90
11025;DHT22;22890;51.820;8.682;2023-05-08T01:48:27;11.30;99.90
11025;DHT22;22890;51.820;8.682;2023-05-08T01:50:59;11.20;99.90
11025;DHT22;22890;51.820;8.682;2023-05-08T01:53:29;11.30;99.90
11025;DHT22;22890;51.820;8.682;2023-05-08T01:56:02;11.30;99.90
11025;DHT22;22890;51.820;8.682;2023-05-08T01:58:31;9.30;99.90
11025;DHT22;22890;51.820;8.682;2023-05-08T02:01:00;11.30;99.90
11025;DHT22;22890;51.820;8.682;2023-05-08T02:03:30;11.30;99.90
11025;DHT22;22890;51.820;8.682;2023-05-08T02:05:59;11.40;99.90
11025;DHT22;22890;51.820;8.682;2023-05-08T02:08:28;11.30;99.90
11025;DHT22;22890;51.820;8.682;2023-05-08T02:10:56;11.30;99.90
11025;DHT22;22890;51.820;8.682;2023-05-08T02:13:25;11.30;99.90
11025;DHT22;22890;51.820;8.682;2023-05-08T02:15:54;11.20;99.90
11025;DHT22;22890;51.820;8.682;2023-05-08T02:18:23;11.20;99.90
11025;DHT22;22890;51.820;8.682;2023-05-08T02:20:52;11.20;99.90
11025;DHT22;22890;51.820;8.682;2023-05-08T02:23:22;11.30;99.90
11025;DHT22;22890;51.820;8.682;2023-05-08T02:25:50;11.20;99.90
11025;DHT22;22890;51.820;8.682;2023-05-08T02:28:17;11.30;99.90
11025;DHT22;22890;51.820;8.682;2023-05-08T02:30:46;11.20;99.90
11025;DHT22;22890;51.820;8.682;2023-05-08T02:33:15;11.30;99.90
11025;DHT22;22890;51.820;8.682;2023-05-08T02:35:43;11.30;99.90
11025;DHT22;22890;51.820;8.682;2023-05-08T02:38:12;11.30;99.90
11025;DHT22;22890;51.820;8.682;2023-05-08T02:40:44;11.30;99.90
11025;DHT22;22890;51.820;8.682;2023-05-08T02:45:44;11.30;99.90
11025;DHT22;22890;51.820;8.682;2023-05-08T02:48:21;11.30;99.90
11025;DHT22;22890;51.820;8.682;2023-05-08T02:51:01;11.30;99.90
11025;DHT22;22890;51.820;8.682;2023-05-08T02:53:52;11.30;99.90
11025;DHT22;22890;51.820;8.682;2023-05-08T02:57:05;11.20;99.90
11025;DHT22;22890;51.820;8.682;2023-05-08T02:59:36;11.20;99.90
11025;DHT22;22890;51.820;8.682;2023-05-08T03:02:31;11.20;99.90
11025;DHT22;22890;51.820;8.682;2023-05-08T03:05:02;11.20;99.90
11025;DHT22;22890;51.820;8.682;2023-05-08T03:07:36;9.60;99.90
11025;DHT22;22890;51.820;8.682;2023-05-08T03:10:07;11.20;99.90
11025;DHT22;22890;51.820;8.682;2023-05-08T03:12:40;11.10;99.90
11025;DHT22;22890;51.820;8.682;2023-05-08T03:17:37;11.10;99.90
11025;DHT22;22890;51.820;8.682;2023-05-08T03:20:06;11.20;99.90
11025;DHT22;22890;51.820;8.682;2023-05-08T03:22:36;11.20;99.90
11025;DHT22;22890;51.820;8.682;2023-05-08T03:25:05;11.10;99.90
11025;DHT22;22890;51.820;8.682;2023-05-08T03:27:34;11.20;99.90
11025;DHT22;22890;51.820;8.682;2023-05-08T03:30:03;11.10;99.90
11025;DHT22;22890;51.820;8.682;2023-05-08T03:32:34;11.10;99.90
11025;DHT22;22890;51.820;8.682;2023-05-08T03:35:01;11.10;99.90
11025;DHT22;22890;51.820;8.682;2023-05-08T03:42:24;11.10;99.90
11025;DHT22;22890;51.820;8.682;2023-05-08T03:44:52;11.00;99.90
11025;DHT22;22890;51.820;8.682;2023-05-08T03:47:20;11.00;99.90
11025;DHT22;22890;51.820;8.682;2023-05-08T03:49:48;11.10;99.90
11025;DHT22;22890;51.820;8.682;2023-05-08T03:59:53;11.00;99.90
11025;DHT22;22890;51.820;8.682;2023-05-08T04:02:36;11.00;99.90
11025;DHT22;22890;51.820;8.682;2023-05-08T04:05:30;9.50;99.90
11025;DHT22;22890;51.820;8.682;2023-05-08T04:08:24;11.10;99.90
11025;DHT22;22890;51.820;8.682;2023-05-08T04:11:11;10.90;99.90
11025;DHT22;22890;51.820;8.682;2023-05-08T04:13:53;10.90;99.90
11025;DHT22;22890;51.820;8.682;2023-05-08T04:16:25;10.90;99.90
11025;DHT22;22890;51.820;8.682;2023-05-08T04:19:00;10.90;99.90
11025;DHT22;22890;51.820;8.682;2023-05-08T04:21:28;8.40;99.90
11025;DHT22;22890;51.820;8.682;2023-05-08T04:24:01;10.90;99.90
11025;DHT22;22890;51.820;8.682;2023-05-08T04:31:25;10.90;99.90
11025;DHT22;22890;51.820;8.682;2023-05-08T04:33:53;10.90;99.90
11025;DHT22;22890;51.820;8.682;2023-05-08T04:38:47;11.00;99.90
11025;DHT22;22890;51.820;8.682;2023-05-08T05:05:57;11.10;99.90
11025;DHT22;22890;51.820;8.682;2023-05-08T05:08:24;11.10;99.90
11025;DHT22;22890;51.820;8.682;2023-05-08T05:47:45;12.20;99.90
11025;DHT22;22890;51.820;8.682;2023-05-08T06:00:07;13.00;99.90
11025;DHT22;22890;51.820;8.682;2023-05-08T06:19:58;13.70;99.90
11025;DHT22;22890;51.820;8.682;2023-05-08T06:27:19;14.00;99.90
11025;DHT22;22890;51.820;8.682;2023-05-08T06:29:48;14.10;99.90
11025;DHT22;22890;51.820;8.682;2023-05-08T06:44:38;14.80;99.90
11025;DHT22;22890;51.820;8.682;2023-05-08T06:49:36;15.00;99.90
11025;DHT22;22890;51.820;8.682;2023-05-08T06:52:03;15.10;99.90
11025;DHT22;22890;51.820;8.682;2023-05-08T06:59:24;15.40;99.90
11025;DHT22;22890;51.820;8.682;2023-05-08T07:09:12;15.80;99.90
11025;DHT22;22890;51.820;8.682;2023-05-08T07:16:33;16.00;99.90
11025;DHT22;22890;51.820;8.682;2023-05-08T07:21:27;16.20;99.90
11025;DHT22;22890;51.820;8.682;2023-05-08T07:31:16;16.60;99.90
11025;DHT22;22890;51.820;8.682;2023-05-08T07:41:06;16.80;99.90
11025;DHT22;22890;51.820;8.682;2023-05-08T07:46:01;17.00;99.90
11025;DHT22;22890;51.820;8.682;2023-05-08T07:50:54;17.10;99.90
11025;DHT22;22890;51.820;8.682;2023-05-08T07:58:16;17.30;99.90
11025;DHT22;22890;51.820;8.682;2023-05-08T08:00:42;17.40;99.90
11025;DHT22;22890;51.820;8.682;2023-05-08T08:03:10;17.50;99.90
11025;DHT22;22890;51.820;8.682;2023-05-08T08:15:27;18.00;99.90
11025;DHT22;22890;51.820;8.682;2023-05-08T08:20:21;18.10;99.90
11025;DHT22;22890;51.820;8.682;2023-05-08T08:22:48;18.20;99.90
11025;DHT22;22890;51.820;8.682;2023-05-08T08:25:15;18.20;99.90
11025;DHT22;22890;51.820;8.682;2023-05-08T08:27:42;18.20;99.90
11025;DHT22;22890;51.820;8.682;2023-05-08T08:30:08;18.30;99.90
11025;DHT22;22890;51.820;8.682;2023-05-08T08:32:44;18.30;99.90
11025;DHT22;22890;51.820;8.682;2023-05-08T08:35:11;18.40;99.90
11025;DHT22;22890;51.820;8.682;2023-05-08T08:37:39;18.30;99.90
11025;DHT22;22890;51.820;8.682;2023-05-08T08:40:06;18.40;99.90
11025;DHT22;22890;51.820;8.682;2023-05-08T08:42:33;18.30;99.90
11025;DHT22;22890;51.820;8.682;2023-05-08T08:45:00;18.30;99.90
11025;DHT22;22890;51.820;8.682;2023-05-08T08:47:28;18.40;99.90
11025;DHT22;22890;51.820;8.682;2023-05-08T08:49:57;18.40;99.90
11025;DHT22;22890;51.820;8.682;2023-05-08T08:52:45;18.60;99.90
11025;DHT22;22890;51.820;8.682;2023-05-08T08:55:15;18.60;99.90
11025;DHT22;22890;51.820;8.682;2023-05-08T09:00:44;18.70;99.90
11025;DHT22;22890;51.820;8.682;2023-05-08T09:03:13;18.70;99.90
11025;DHT22;22890;51.820;8.682;2023-05-08T09:05:40;18.80;99.90
11025;DHT22;22890;51.820;8.682;2023-05-08T09:08:08;18.80;99.90
11025;DHT22;22890;51.820;8.682;2023-05-08T09:10:35;18.80;99.90
11025;DHT22;22890;51.820;8.682;2023-05-08T09:13:03;18.90;99.90
11025;DHT22;22890;51.820;8.682;2023-05-08T09:15:31;19.00;99.90
11025;DHT22;22890;51.820;8.682;2023-05-08T09:18:00;19.00;99.90
11025;DHT22;22890;51.820;8.682;2023-05-08T09:20:28;19.00;99.90
11025;DHT22;22890;51.820;8.682;2023-05-08T09:22:55;19.00;99.90
11025;DHT22;22890;51.820;8.682;2023-05-08T09:25:22;19.00;99.90
11025;DHT22;22890;51.820;8.682;2023-05-08T09:27:49;19.10;99.90
11025;DHT22;22890;51.820;8.682;2023-05-08T09:30:16;19.10;99.90
11025;DHT22;22890;51.820;8.682;2023-05-08T09:32:43;19.30;99.90
11025;DHT22;22890;51.820;8.682;2023-05-08T09:35:11;19.30;99.90
11025;DHT22;22890;51.820;8.682;2023-05-08T09:37:40;19.30;99.90
11025;DHT22;22890;51.820;8.682;2023-05-08T09:40:19;19.30;99.90
11025;DHT22;22890;51.820;8.682;2023-05-08T09:42:47;19.40;99.90
11025;DHT22;22890;51.820;8.682;2023-05-08T09:45:28;19.40;99.90
11025;DHT22;22890;51.820;8.682;2023-05-08T09:50:24;19.50;99.90
11025;DHT22;22890;51.820;8.682;2023-05-08T09:52:51;19.60;99.90
11025;DHT22;22890;51.820;8.682;2023-05-08T09:55:17;19.60;99.90
11025;DHT22;22890;51.820;8.682;2023-05-08T09:57:56;19.70;99.90
11025;DHT22;22890;51.820;8.682;2023-05-08T10:00:24;19.80;99.90
11025;DHT22;22890;51.820;8.682;2023-05-08T10:02:59;19.90;99.90
11025;DHT22;22890;51.820;8.682;2023-05-08T10:05:30;20.00;99.90
11025;DHT22;22890;51.820;8.682;2023-05-08T10:08:16;20.00;99.90
11025;DHT22;22890;51.820;8.682;2023-05-08T10:10:43;20.10;99.90
11025;DHT22;22890;51.820;8.682;2023-05-08T10:13:09;20.10;99.90
11025;DHT22;22890;51.820;8.682;2023-05-08T10:15:37;20.10;99.90
11025;DHT22;22890;51.820;8.682;2023-05-08T10:18:07;20.10;99.90
11025;DHT22;22890;51.820;8.682;2023-05-08T10:20:38;20.10;99.90
11025;DHT22;22890;51.820;8.682;2023-05-08T10:23:10;20.10;99.90
11025;DHT22;22890;51.820;8.682;2023-05-08T10:25:45;20.10;99.90
11025;DHT22;22890;51.820;8.682;2023-05-08T10:28:22;20.20;99.90
11025;DHT22;22890;51.820;8.682;2023-05-08T10:30:55;20.20;99.90
11025;DHT22;22890;51.820;8.682;2023-05-08T10:33:30;20.30;99.90
11025;DHT22;22890;51.820;8.682;2023-05-08T10:35:58;20.30;99.90
11025;DHT22;22890;51.820;8.682;2023-05-08T10:38:25;20.30;99.90
11025;DHT22;22890;51.820;8.682;2023-05-08T10:40:53;20.40;99.90
11025;DHT22;22890;51.820;8.682;2023-05-08T10:43:28;20.40;99.90
11025;DHT22;22890;51.820;8.682;2023-05-08T10:45:56;20.60;99.90
11025;DHT22;22890;51.820;8.682;2023-05-08T10:48:49;20.60;99.90
11025;DHT22;22890;51.820;8.682;2023-05-08T10:51:26;20.70;99.90
11025;DHT22;22890;51.820;8.682;2023-05-08T10:54:12;20.70;99.90
11025;DHT22;22890;51.820;8.682;2023-05-08T10:56:41;20.80;99.90
11025;DHT22;22890;51.820;8.682;2023-05-08T10:59:16;20.70;99.90
11025;DHT22;22890;51.820;8.682;2023-05-08T11:01:47;20.80;99.90
11025;DHT22;22890;51.820;8.682;2023-05-08T11:04:23;20.90;99.90
11025;DHT22;22890;51.820;8.682;2023-05-08T11:06:50;20.90;99.90
11025;DHT22;22890;51.820;8.682;2023-05-08T11:09:25;21.00;99.90
11025;DHT22;22890;51.820;8.682;2023-05-08T11:12:07;21.10;99.90
11025;DHT22;22890;51.820;8.682;2023-05-08T11:14:40;21.10;99.90
11025;DHT22;22890;51.820;8.682;2023-05-08T11:17:08;21.20;99.90
11025;DHT22;22890;51.820;8.682;2023-05-08T11:19:36;21.30;99.90
11025;DHT22;22890;51.820;8.682;2023-05-08T11:22:23;21.30;99.90
11025;DHT22;22890;51.820;8.682;2023-05-08T11:24:56;21.40;99.90
11025;DHT22;22890;51.820;8.682;2023-05-08T11:27:36;21.40;99.90
11025;DHT22;22890;51.820;8.682;2023-05-08T11:40:58;21.50;99.90
11025;DHT22;22890;51.820;8.682;2023-05-08T11:46:18;21.60;99.90
11025;DHT22;22890;51.820;8.682;2023-05-08T11:48:45;21.60;99.90
11025;DHT22;22890;51.820;8.682;2023-05-08T11:51:12;21.60;99.90
11025;DHT22;22890;51.820;8.682;2023-05-08T11:53:42;21.60;99.90
11025;DHT22;22890;51.820;8.682;2023-05-08T11:58:36;21.70;99.90
11025;DHT22;22890;51.820;8.682;2023-05-08T12:01:03;21.70;99.90
11025;DHT22;22890;51.820;8.682;2023-05-08T12:03:30;21.70;99.90
11025;DHT22;22890;51.820;8.682;2023-05-08T12:05:58;21.50;99.90
11025;DHT22;22890;51.820;8.682;2023-05-08T12:08:25;21.80;99.90
11025;DHT22;22890;51.820;8.682;2023-05-08T12:10:55;21.80;99.90
11025;DHT22;22890;51.820;8.682;2023-05-08T12:15:52;22.00;99.90
11025;DHT22;22890;51.820;8.682;2023-05-08T12:18:20;22.00;99.90
11025;DHT22;22890;51.820;8.682;2023-05-08T12:20:56;22.10;99.90
11025;DHT22;22890;51.820;8.682;2023-05-08T12:23:29;22.10;99.90
11025;DHT22;22890;51.820;8.682;2023-05-08T12:25:59;22.20;99.90
11025;DHT22;22890;51.820;8.682;2023-05-08T12:28:26;22.30;99.90
11025;DHT22;22890;51.820;8.682;2023-05-08T12:30:53;22.10;99.90
11025;DHT22;22890;51.820;8.682;2023-05-08T12:33:20;22.40;99.90
11025;DHT22;22890;51.820;8.682;2023-05-08T12:35:48;22.40;99.90
11025;DHT22;22890;51.820;8.682;2023-05-08T12:38:15;22.50;99.90
11025;DHT22;22890;51.820;8.682;2023-05-08T12:40:44;22.60;99.90
11025;DHT22;22890;51.820;8.682;2023-05-08T12:43:11;22.50;99.90
11025;DHT22;22890;51.820;8.682;2023-05-08T12:45:41;22.60;99.90
11025;DHT22;22890;51.820;8.682;2023-05-08T12:48:13;22.60;99.90
11025;DHT22;22890;51.820;8.682;2023-05-08T12:50:44;22.60;99.90
11025;DHT22;22890;51.820;8.682;2023-05-08T12:53:16;22.50;99.90
11025;DHT22;22890;51.820;8.682;2023-05-08T12:55:57;22.60;99.90
11025;DHT22;22890;51.820;8.682;2023-05-08T12:58:25;22.50;99.90
11025;DHT22;22890;51.820;8.682;2023-05-08T13:01:03;22.40;99.90
11025;DHT22;22890;51.820;8.682;2023-05-08T13:03:30;22.40;99.90
11025;DHT22;22890;51.820;8.682;2023-05-08T13:05:58;22.40;99.90
11025;DHT22;22890;51.820;8.682;2023-05-08T13:08:33;22.30;99.90
11025;DHT22;22890;51.820;8.682;2023-05-08T13:11:01;22.30;99.90
11025;DHT22;22890;51.820;8.682;2023-05-08T13:13:35;22.20;99.90
11025;DHT22;22890;51.820;8.682;2023-05-08T13:16:04;22.10;99.90
11025;DHT22;22890;51.820;8.682;2023-05-08T13:18:32;22.10;99.90
11025;DHT22;22890;51.820;8.682;2023-05-08T13:20:58;22.10;99.90
11025;DHT22;22890;51.820;8.682;2023-05-08T13:25:54;22.00;99.90
11025;DHT22;22890;51.820;8.682;2023-05-08T13:28:21;22.00;99.90
11025;DHT22;22890;51.820;8.682;2023-05-08T13:30:48;22.00;99.90
11025;DHT22;22890;51.820;8.682;2023-05-08T13:33:14;22.00;99.90
11025;DHT22;22890;51.820;8.682;2023-05-08T13:38:08;22.00;99.90
11025;DHT22;22890;51.820;8.682;2023-05-08T13:40:35;22.00;99.90
11025;DHT22;22890;51.820;8.682;2023-05-08T13:43:01;22.10;99.90
11025;DHT22;22890;51.820;8.682;2023-05-08T13:45:28;22.00;99.90
11025;DHT22;22890;51.820;8.682;2023-05-08T13:50:22;22.10;99.90
11025;DHT22;22890;51.820;8.682;2023-05-08T13:52:49;22.10;99.90
11025;DHT22;22890;51.820;8.682;2023-05-08T13:55:20;22.20;99.90
11025;DHT22;22890;51.820;8.682;2023-05-08T13:57:48;22.20;99.90
11025;DHT22;22890;51.820;8.682;2023-05-08T14:00:15;22.20;99.90
11025;DHT22;22890;51.820;8.682;2023-05-08T14:02:41;22.10;99.90
11025;DHT22;22890;51.820;8.682;2023-05-08T14:05:08;22.00;99.90
11025;DHT22;22890;51.820;8.682;2023-05-08T14:07:35;22.00;99.90
11025;DHT22;22890;51.820;8.682;2023-05-08T14:12:29;22.00;99.90
11025;DHT22;22890;51.820;8.682;2023-05-08T14:14:56;22.00;99.90
11025;DHT22;22890;51.820;8.682;2023-05-08T14:17:23;21.90;99.90
11025;DHT22;22890;51.820;8.682;2023-05-08T14:19:50;21.90;99.90
11025;DHT22;22890;51.820;8.682;2023-05-08T14:22:16;21.90;99.90
11025;DHT22;22890;51.820;8.682;2023-05-08T14:24:43;21.80;99.90
11025;DHT22;22890;51.820;8.682;2023-05-08T14:27:10;21.80;99.90
11025;DHT22;22890;51.820;8.682;2023-05-08T14:29:37;17.10;99.90
11025;DHT22;22890;51.820;8.682;2023-05-08T14:32:04;21.70;99.90
11025;DHT22;22890;51.820;8.682;2023-05-08T14:34:31;21.60;99.90
11025;DHT22;22890;51.820;8.682;2023-05-08T14:36:57;21.60;99.90
11025;DHT22;22890;51.820;8.682;2023-05-08T14:39:24;21.50;99.90
11025;DHT22;22890;51.820;8.682;2023-05-08T14:41:51;21.40;99.90
11025;DHT22;22890;51.820;8.682;2023-05-08T14:52:02;20.80;99.90
11025;DHT22;22890;51.820;8.682;2023-05-08T14:54:29;20.70;99.90
11025;DHT22;22890;51.820;8.682;2023-05-08T14:56:56;20.60;99.90
11025;DHT22;22890;51.820;8.682;2023-05-08T15:04:17;20.50;99.90
11025;DHT22;22890;51.820;8.682;2023-05-08T15:06:44;20.50;99.90
11025;DHT22;22890;51.820;8.682;2023-05-08T15:09:11;20.40;99.90
11025;DHT22;22890;51.820;8.682;2023-05-08T15:11:37;20.40;99.90
11025;DHT22;22890;51.820;8.682;2023-05-08T15:16:31;20.40;99.90
11025;DHT22;22890;51.820;8.682;2023-05-08T15:23:54;20.20;99.90
11025;DHT22;22890;51.820;8.682;2023-05-08T15:26:21;20.20;99.90
11025;DHT22;22890;51.820;8.682;2023-05-08T15:36:14;20.00;99.90
11025;DHT22;22890;51.820;8.682;2023-05-08T15:41:08;19.90;99.90
11025;DHT22;22890;51.820;8.682;2023-05-08T15:43:41;19.90;99.90
11025;DHT22;22890;51.820;8.682;2023-05-08T15:53:31;19.40;99.90
11025;DHT22;22890;51.820;8.682;2023-05-08T16:00:53;19.20;99.90
11025;DHT22;22890;51.820;8.682;2023-05-08T16:13:08;19.40;99.90
11025;DHT22;22890;51.820;8.682;2023-05-08T16:18:02;19.40;99.90
11025;DHT22;22890;51.820;8.682;2023-05-08T16:25:26;19.40;99.90
11025;DHT22;22890;51.820;8.682;2023-05-08T16:27:53;19.30;99.90
11025;DHT22;22890;51.820;8.682;2023-05-08T16:32:47;19.30;99.90
11025;DHT22;22890;51.820;8.682;2023-05-08T16:35:13;19.20;99.90
11025;DHT22;22890;51.820;8.682;2023-05-08T16:37:41;19.20;99.90
11025;DHT22;22890;51.820;8.682;2023-05-08T16:40:08;19.20;99.90
11025;DHT22;22890;51.820;8.682;2023-05-08T16:42:36;19.10;99.90
11025;DHT22;22890;51.820;8.682;2023-05-08T16:45:04;19.10;99.90
11025;DHT22;22890;51.820;8.682;2023-05-08T16:47:31;19.10;99.90
11025;DHT22;22890;51.820;8.682;2023-05-08T16:52:25;19.10;99.90
11025;DHT22;22890;51.820;8.682;2023-05-08T16:54:52;19.10;99.90
11025;DHT22;22890;51.820;8.682;2023-05-08T17:04:45;18.90;99.90
11025;DHT22;22890;51.820;8.682;2023-05-08T17:07:16;18.80;99.90
11025;DHT22;22890;51.820;8.682;2023-05-08T17:09:43;18.90;99.90
11025;DHT22;22890;51.820;8.682;2023-05-08T17:24:31;18.90;99.90
11025;DHT22;22890;51.820;8.682;2023-05-08T17:26:58;18.80;99.90
11025;DHT22;22890;51.820;8.682;2023-05-08T17:29:24;18.80;99.90
11025;DHT22;22890;51.820;8.682;2023-05-08T17:34:19;18.80;99.90
11025;DHT22;22890;51.820;8.682;2023-05-08T17:44:07;18.80;99.90
11025;DHT22;22890;51.820;8.682;2023-05-08T17:51:28;18.80;99.90
11025;DHT22;22890;51.820;8.682;2023-05-08T17:58:49;18.80;99.90
11025;DHT22;22890;51.820;8.682;2023-05-08T18:01:18;18.80;99.90
11025;DHT22;22890;51.820;8.682;2023-05-08T18:03:46;18.80;99.90
11025;DHT22;22890;51.820;8.682;2023-05-08T18:06:15;18.70;99.90
11025;DHT22;22890;51.820;8.682;2023-05-08T18:11:17;18.70;99.90
11025;DHT22;22890;51.820;8.682;2023-05-08T18:16:15;18.70;99.90
11025;DHT22;22890;51.820;8.682;2023-05-08T18:21:09;18.70;99.90
11025;DHT22;22890;51.820;8.682;2023-05-08T18:23:36;18.70;99.90
11025;DHT22;22890;51.820;8.682;2023-05-08T18:26:02;18.60;99.90
11025;DHT22;22890;51.820;8.682;2023-05-08T18:28:29;18.60;99.90
11025;DHT22;22890;51.820;8.682;2023-05-08T18:35:50;18.40;99.90
11025;DHT22;22890;51.820;8.682;2023-05-08T18:38:17;18.40;99.90
11025;DHT22;22890;51.820;8.682;2023-05-08T18:40:44;18.30;99.90
11025;DHT22;22890;51.820;8.682;2023-05-08T18:45:39;18.90;99.90
11025;DHT22;22890;51.820;8.682;2023-05-08T18:48:07;18.30;99.90
11025;DHT22;22890;51.820;8.682;2023-05-08T19:07:43;17.80;99.90
11025;DHT22;22890;51.820;8.682;2023-05-08T19:10:11;17.70;99.90
11025;DHT22;22890;51.820;8.682;2023-05-08T19:20:02;17.40;99.90
11025;DHT22;22890;51.820;8.682;2023-05-08T19:27:26;17.30;99.90
11025;DHT22;22890;51.820;8.682;2023-05-08T19:29:54;17.20;99.90
11025;DHT22;22890;51.820;8.682;2023-05-08T19:34:48;17.10;99.90
11025;DHT22;22890;51.820;8.682;2023-05-08T19:39:42;16.90;99.90
11025;DHT22;22890;51.820;8.682;2023-05-08T19:47:06;16.80;99.90
11025;DHT22;22890;51.820;8.682;2023-05-08T19:54:28;16.70;99.90
11025;DHT22;22890;51.820;8.682;2023-05-08T19:59:22;16.70;99.90
11025;DHT22;22890;51.820;8.682;2023-05-08T20:14:04;16.60;99.90
11025;DHT22;22890;51.820;8.682;2023-05-08T20:23:59;16.60;99.90
11025;DHT22;22890;51.820;8.682;2023-05-08T20:28:55;16.60;99.90
11025;DHT22;22890;51.820;8.682;2023-05-08T20:31:22;16.60;99.90
11025;DHT22;22890;51.820;8.682;2023-05-08T20:41:12;16.40;99.90
11025;DHT22;22890;51.820;8.682;2023-05-08T20:51:00;16.40;99.90
11025;DHT22;22890;51.820;8.682;2023-05-08T20:56:01;16.30;99.90
11025;DHT22;22890;51.820;8.682;2023-05-08T21:05:49;16.30;99.90
11025;DHT22;22890;51.820;8.682;2023-05-08T21:08:20;16.20;99.90
11025;DHT22;22890;51.820;8.682;2023-05-08T21:25:31;16.30;99.90
11025;DHT22;22890;51.820;8.682;2023-05-08T21:30:25;16.30;99.90
11025;DHT22;22890;51.820;8.682;2023-05-08T21:32:52;16.30;99.90
11025;DHT22;22890;51.820;8.682;2023-05-08T21:42:40;16.30;99.90
11025;DHT22;22890;51.820;8.682;2023-05-08T21:45:07;16.30;99.90
11025;DHT22;22890;51.820;8.682;2023-05-08T21:52:28;16.30;99.90
11025;DHT22;22890;51.820;8.682;2023-05-08T22:02:16;16.30;99.90
11025;DHT22;22890;51.820;8.682;2023-05-08T22:12:06;16.20;99.90
11025;DHT22;22890;51.820;8.682;2023-05-08T22:17:00;16.20;99.90
11025;DHT22;22890;51.820;8.682;2023-05-08T22:24:22;16.40;99.90
11025;DHT22;22890;51.820;8.682;2023-05-08T22:31:44;16.40;99.90
11025;DHT22;22890;51.820;8.682;2023-05-08T22:36:38;16.40;99.90
11025;DHT22;22890;51.820;8.682;2023-05-08T22:39:06;16.30;99.90
11025;DHT22;22890;51.820;8.682;2023-05-08T22:41:35;16.30;99.90
11025;DHT22;22890;51.820;8.682;2023-05-08T22:58:44;16.20;99.90
11025;DHT22;22890;51.820;8.682;2023-05-08T23:03:41;16.20;99.90
11025;DHT22;22890;51.820;8.682;2023-05-08T23:11:02;16.10;99.90
11025;DHT22;22890;51.820;8.682;2023-05-08T23:13:30;16.20;99.90
11025;DHT22;22890;51.820;8.682;2023-05-08T23:30:39;16.00;99.90
11025;DHT22;22890;51.820;8.682;2023-05-08T23:45:22;15.80;99.90
11025;DHT22;22890;51.820;8.682;2023-05-08T23:50:15;15.80;99.90
11025;DHT22;22890;51.820;8.682;2023-05-08T23:52:42;15.80;99.90
